Historyczne dane pomiarowe

Dodano dane terminowe – wersja testowa.

Dane z okresu 1951-2019

Wersja bazy: 1.34 [2019-03-16, lista zmian], aktualizacja planowana na 2019-04-15

Dane meteo z obszaru Polski uzyskane na podstawie danych udostępnionych przez Instytut Meteorologii i Gospodarki Wodnej – Państwowy Instytut Badawczy.

 

Wybierz Datę:    

       

TemperaturaWilgotnośćWiatrCiśnienieOpadyŚniegCzas trwania zjawisk
 Stacja t tx tn tng RH VA  wxwx mslp ppp RRR   cm mm wxwxwxwxwxwxwx
1994-08-14 15.5 19.7 11.5 9.7-- 5.0 4.3---- 0.5------------
1994-08-13 18.0 22.4 14.2 12.7-- 8.0 3.0---- 0.4------------
1994-08-12 16.8 20.1 15.6 15.0-- 8.0 1.7---- 0.6------------
1994-08-11 19.0 23.8 14.6 11.2-- 7.7 3.3---- 15.3------------
1994-08-10 20.6 26.4 16.2 15.0-- 5.3 1.3---- 0.0------------
1994-08-09 21.0 29.5 16.7 13.9-- 7.7 1.3---- 4.0------------
1994-08-08 23.0 30.4 18.1 14.6-- 7.3 1.7---- 1.5------------
1994-08-07 23.1 31.4 13.1 9.7-- 3.7 1.3---- 0.0------------
1994-08-06 21.2 30.9 12.9 9.7-- 0.3 1.0---- 0.0------------
1994-08-05 22.8 30.4 14.8 11.7-- 1.3 1.0---- 0.0------------
1994-08-04 21.0 27.9 17.4 15.6-- 6.0 0.7---- 3.4------------
1994-08-03 24.4 32.3 18.4 12.7-- 5.3 1.3---- 8.8------------
1994-08-02 25.2 34.4 13.8 10.2-- 2.3 0.3---- 0.0------------
1994-08-01 25.3 34.4 16.3 13.2-- 3.0 1.0---- 0.0------------
1994-07-31 25.2 34.1 15.3 12.2-- 4.3 0.7---- 0.0------------
1994-07-30 25.9 33.4 14.6 11.5-- 3.3 0.7---- 0.0------------
1994-07-29 24.4 33.9 12.9 9.7-- 2.0 0.0---- 0.0------------
1994-07-28 24.7 32.5 13.6 10.2-- 0.7 1.3---- 0.0------------
1994-07-27 23.9 32.7 13.8 10.7-- 2.7 0.3---- 0.0------------
1994-07-26 24.1 32.1 12.5 7.6-- 3.3 0.0---- 0.0------------
1994-07-25 23.9 31.7 11.7 6.8-- 2.7 1.3---- 0.0------------
1994-07-24 22.1 30.7 11.7 6.8-- 4.0 0.7---- 0.0------------
1994-07-23 20.9 29.1 11.2 6.3-- 2.3 1.3---- 0.0------------
1994-07-22 20.2 27.1 10.5 5.6-- 0.3 1.7---- 0.0------------
1994-07-21 20.0 26.9 9.2 4.1-- 0.3 1.3---- 0.0------------
1994-07-20 18.5 24.1 10.2 4.8-- 2.0 1.7---- 0.0------------
1994-07-19 20.1 24.9 14.0 9.2-- 3.7 2.3---- 0.0------------
1994-07-18 20.6 25.6 16.9 14.6-- 7.7 1.7---- 0.0------------
1994-07-17 23.2 29.4 16.3 10.7-- 5.0 1.3---- 9.2------------
1994-07-16 23.3 31.4 11.5 6.6-- 3.3 1.3---- 0.0------------
1994-07-15 22.7 29.1 13.8 9.3-- 2.0 1.3---- 0.0------------
1994-07-14 21.1 28.4 12.9 8.2-- 7.3 1.3---- 7.6------------
1994-07-13 22.4 29.4 11.2 5.8-- 3.7 1.7---- 0.0------------
1994-07-12 21.7 28.7 11.2 7.9-- 2.7 2.0---- 0.0------------
1994-07-11 16.8 20.9 11.2 5.0-- 6.0 1.3---- 0.0------------
1994-07-10 15.8 23.4 9.3 4.8-- 7.0 1.3---- 1.6------------
1994-07-09 15.7 20.5 11.3 4.4-- 7.3 2.7---- 0.0------------
1994-07-08 19.7 24.2 15.6 13.2-- 6.7 2.3---- 0.0------------
1994-07-07 22.0 27.7 11.7 6.3-- 6.0 1.3---- 0.0------------
1994-07-06 19.2 24.9 9.9 4.4-- 2.7 1.7---- 0.0------------
1994-07-05 20.7 27.4 10.5 4.8-- 4.7 1.0---- 0.0------------
1994-07-04 20.5 27.1 8.9 3.1-- 0.3 1.3---- 0.0------------
1994-07-03 18.3 25.7 7.5 1.8-- 0.7 1.0---- 0.0------------
1994-07-02 18.2 24.1 9.2 2.9-- 0.0 2.0---- 0.0------------
1994-07-01 19.7 23.7 14.8 14.8-- 3.0 2.0---- 0.0------------
1994-06-30 25.5 31.7 15.0 9.5-- 5.0 1.7---- 0.0------------
1994-06-29 24.3 31.9 13.8 7.9-- 0.0 1.7---- 0.0------------
1994-06-28 23.4 28.6 17.4 11.7-- 0.7 1.3---- 0.0------------
1994-06-27 24.9 32.1 14.8 9.5-- 1.0 1.0---- 0.0------------
1994-06-26 20.6 29.4 10.7 3.4-- 0.0 2.3---- 0.0------------
1994-06-25 15.7 22.9 5.2 -1.5-- 0.3 1.0---- 0.0------------
1994-06-24 14.4 19.7 7.5 2.9-- 1.0 4.3---- 0.0------------
1994-06-23 18.0 23.7 16.7 12.9-- 4.0 4.7---- 0.0------------
1994-06-22 18.2 26.7 7.2 1.0-- 5.3 2.7---- 0.5------------
1994-06-21 14.6 20.5 6.2 -0.2-- 2.3 1.7---- 0.0------------
1994-06-20 16.8 21.9 11.9 6.3-- 4.7 2.7---- 0.0------------
1994-06-19 16.1 22.9 10.7 8.1-- 7.3 2.7---- 0.0------------
1994-06-18 11.7 18.5 4.2 -0.2-- 5.3 2.7---- 2.5------------
1994-06-17 11.4 15.4 8.7 4.4-- 6.3 3.7---- 0.0------------
1994-06-16 13.0 17.9 6.7 -0.2-- 7.7 3.3---- 3.1------------
318.4 ms

 

Źródłem pochodzenia danych jest Instytut Meteorologii i Gospodarki Wodnej – Państwowy Instytut Badawczy. Dane Instytutu Meteorologii i Gospodarki Wodnej – Państwowego Instytutu Badawczego zostały przetworzone.

Dane źródłowe można odnaleźć na stronie https://dane.imgw.pl